Time;durP1;ratioP1;P1;durP2;ratioP2;P2;SDS_P1;SDS_P2;PMS_P1;PMS_P2;Temp;Humidity;BMP_temperature;BMP_pressure;BME280_temperature;BME280_humidity;BME280_pressure;Samples;Min_cycle;Max_cycle;Signal;HPM_P1;HPM_P2
2021/06/06 00:00:28;;;;;;;6.53;6.03;;;20.20;99.90;;;;;;6224891;28;20233;-63
2021/06/06 00:03:35;;;;;;;6.37;5.87;;;20.20;99.90;;;;;;6224946;28;20249;-63
2021/06/06 00:06:39;;;;;;;6.37;5.87;;;20.20;99.90;;;;;;6225142;28;20259;-63
2021/06/06 00:09:42;;;;;;;6.43;5.83;;;20.10;99.90;;;;;;6224996;28;20247;-62
2021/06/06 00:12:45;;;;;;;5.30;4.90;;;20.10;99.90;;;;;;6225083;28;20224;-63
2021/06/06 00:15:48;;;;;;;5.43;4.97;;;20.10;99.90;;;;;;6224763;28;20237;-62
2021/06/06 00:18:52;;;;;;;5.27;4.87;;;20.00;99.90;;;;;;6224560;28;20553;-62
2021/06/06 00:21:57;;;;;;;5.03;4.63;;;20.00;99.90;;;;;;6224419;28;20237;-63
2021/06/06 00:25:00;;;;;;;5.37;4.87;;;20.00;99.90;;;;;;6224927;28;20277;-62
2021/06/06 00:28:03;;;;;;;5.23;4.83;;;19.90;99.90;;;;;;6224253;28;20240;-63
2021/06/06 00:31:08;;;;;;;5.13;4.73;;;19.90;99.90;;;;;;6224646;28;20228;-63
2021/06/06 00:34:13;;;;;;;5.17;4.77;;;19.80;99.90;;;;;;6224127;28;20241;-63
2021/06/06 00:37:15;;;;;;;5.57;5.07;;;19.80;99.90;;;;;;6224440;28;20236;-63
2021/06/06 00:40:25;;;;;;;5.67;5.20;;;19.70;99.90;;;;;;6222656;28;20229;-63
2021/06/06 00:43:29;;;;;;;5.30;5.00;;;19.70;99.90;;;;;;6223847;28;20264;-63
2021/06/06 00:46:32;;;;;;;6.70;6.20;;;19.60;99.90;;;;;;6224386;28;20229;-63
2021/06/06 00:49:37;;;;;;;5.60;5.20;;;19.60;99.90;;;;;;6228815;28;20267;-63
2021/06/06 00:52:41;;;;;;;5.73;5.13;;;19.60;99.90;;;;;;6228245;28;20233;-63
2021/06/06 00:55:44;;;;;;;6.10;5.03;;;19.60;99.90;;;;;;6222974;28;20236;-63
2021/06/06 00:58:50;;;;;;;5.17;4.80;;;19.50;99.90;;;;;;6228558;28;20240;-63
2021/06/06 01:01:54;;;;;;;5.27;4.87;;;19.40;99.90;;;;;;6228694;28;20695;-63
2021/06/06 01:04:58;;;;;;;5.20;4.80;;;19.50;99.90;;;;;;6228409;28;20241;-63
2021/06/06 01:08:01;;;;;;;5.70;5.30;;;19.40;99.90;;;;;;6228360;28;20252;-63
2021/06/06 01:11:20;;;;;;;7.07;6.47;;;19.40;99.90;;;;;;6228303;28;20228;-62
2021/06/06 01:14:27;;;;;;;4.60;4.20;;;19.40;99.90;;;;;;6228330;28;20248;-63
2021/06/06 01:17:36;;;;;;;4.73;4.43;;;19.50;99.90;;;;;;6228461;28;20229;-63
2021/06/06 01:20:47;;;;;;;5.70;4.50;;;19.50;99.90;;;;;;6228147;28;20244;-63
2021/06/06 01:24:10;;;;;;;5.33;4.37;;;19.50;99.90;;;;;;6228561;28;20647;-63
2021/06/06 01:27:16;;;;;;;3.90;3.67;;;19.50;99.90;;;;;;6252997;28;20251;-63
2021/06/06 01:30:22;;;;;;;4.23;3.93;;;19.50;99.90;;;;;;6252365;28;20243;-63
2021/06/06 01:33:30;;;;;;;4.10;3.80;;;19.50;99.90;;;;;;6252948;28;20224;-63
2021/06/06 01:36:35;;;;;;;3.43;3.23;;;19.50;99.90;;;;;;6252256;28;20235;-62
2021/06/06 01:39:42;;;;;;;6.33;3.87;;;19.50;99.90;;;;;;6252422;28;20236;-63
2021/06/06 01:42:48;;;;;;;3.67;3.40;;;19.60;99.90;;;;;;6252214;28;20579;-63
2021/06/06 01:45:54;;;;;;;4.23;3.83;;;19.50;99.90;;;;;;6252393;28;20243;-63
2021/06/06 01:48:57;;;;;;;4.30;4.00;;;19.50;99.90;;;;;;6252139;28;20228;-63
2021/06/06 01:52:04;;;;;;;3.80;3.50;;;19.60;99.90;;;;;;6252086;28;20240;-63
2021/06/06 01:55:12;;;;;;;3.60;3.30;;;19.60;99.90;;;;;;6252443;28;20236;-62
2021/06/06 01:58:16;;;;;;;6.20;3.70;;;19.60;99.90;;;;;;6251506;28;20228;-62
2021/06/06 02:01:22;;;;;;;3.70;3.40;;;19.60;99.90;;;;;;6237924;28;20250;-63
2021/06/06 02:04:25;;;;;;;3.63;3.33;;;19.60;99.90;;;;;;6251735;28;20315;-63
2021/06/06 02:07:32;;;;;;;3.40;3.13;;;19.60;99.90;;;;;;6251927;28;20228;-63
2021/06/06 02:10:42;;;;;;;4.07;3.77;;;19.60;99.90;;;;;;6251339;28;20570;-63
2021/06/06 02:13:49;;;;;;;3.90;3.60;;;19.60;99.90;;;;;;6251678;28;20228;-63
2021/06/06 02:16:57;;;;;;;4.17;3.40;;;19.60;99.90;;;;;;6251621;28;20224;-63
2021/06/06 02:20:04;;;;;;;3.67;3.37;;;19.60;99.90;;;;;;6251491;28;20574;-63
2021/06/06 02:23:08;;;;;;;3.53;3.27;;;19.70;99.90;;;;;;6251373;28;20232;-63
2021/06/06 02:26:18;;;;;;;4.40;4.10;;;19.60;99.90;;;;;;6251241;28;20255;-63
2021/06/06 02:29:27;;;;;;;4.93;4.53;;;19.60;99.90;;;;;;6251032;28;20238;-63
2021/06/06 02:32:33;;;;;;;4.30;4.00;;;19.50;99.90;;;;;;6251332;28;20243;-63
2021/06/06 02:35:42;;;;;;;4.50;4.20;;;19.50;99.90;;;;;;6250676;28;20956;-62
2021/06/06 02:38:49;;;;;;;5.07;4.67;;;19.60;99.90;;;;;;6250892;28;20251;-63
2021/06/06 02:41:59;;;;;;;6.00;5.50;;;19.60;99.90;;;;;;6226065;28;20227;-63
2021/06/06 02:45:07;;;;;;;5.87;4.73;;;19.60;99.90;;;;;;6226438;28;20236;-63
2021/06/06 02:48:15;;;;;;;5.10;4.70;;;19.50;99.90;;;;;;6226422;28;20244;-63
2021/06/06 02:51:25;;;;;;;5.57;5.10;;;19.60;99.90;;;;;;6226300;28;20248;-60
2021/06/06 02:54:33;;;;;;;5.70;5.30;;;19.60;99.90;;;;;;6226092;28;20233;-60
2021/06/06 02:57:40;;;;;;;5.57;4.77;;;19.60;99.90;;;;;;6226172;28;20225;-64
2021/06/06 03:00:45;;;;;;;5.57;5.03;;;19.60;99.90;;;;;;6225828;28;20247;-65
2021/06/06 03:03:49;;;;;;;4.80;4.50;;;19.60;99.90;;;;;;6226007;28;20663;-65
2021/06/06 03:06:57;;;;;;;5.73;5.23;;;19.60;99.90;;;;;;6225838;28;20232;-63
2021/06/06 03:10:00;;;;;;;5.80;5.27;;;19.60;99.90;;;;;;6225289;28;20237;-63
2021/06/06 03:13:09;;;;;;;5.97;5.37;;;19.60;99.90;;;;;;6225423;28;20756;-63
2021/06/06 03:16:14;;;;;;;5.63;5.23;;;19.70;99.90;;;;;;6225705;28;20579;-64
2021/06/06 03:19:17;;;;;;;6.07;5.63;;;19.70;99.90;;;;;;6225385;28;20264;-64
2021/06/06 03:22:24;;;;;;;6.27;5.77;;;19.70;99.90;;;;;;6225731;28;20246;-64
2021/06/06 03:25:35;;;;;;;6.03;5.60;;;19.70;99.90;;;;;;6225444;28;20259;-64
2021/06/06 03:28:42;;;;;;;6.17;5.77;;;19.70;99.90;;;;;;6225387;28;20233;-64
2021/06/06 03:31:49;;;;;;;6.97;6.47;;;19.70;99.90;;;;;;6225346;28;20248;-64
2021/06/06 03:34:52;;;;;;;6.43;6.00;;;19.70;99.90;;;;;;6225322;28;20304;-64
2021/06/06 03:37:55;;;;;;;6.30;5.90;;;19.60;99.90;;;;;;6225004;28;20233;-65
2021/06/06 03:40:58;;;;;;;7.20;6.70;;;19.70;99.90;;;;;;6225494;28;20224;-64
2021/06/06 03:44:03;;;;;;;5.80;5.40;;;19.70;99.90;;;;;;6224993;28;20578;-64
2021/06/06 03:47:06;;;;;;;11.10;6.50;;;19.70;99.90;;;;;;6224954;28;20225;-65
2021/06/06 03:50:13;;;;;;;6.77;6.17;;;19.70;99.90;;;;;;6225285;28;20243;-64
2021/06/06 03:53:16;;;;;;;6.00;5.57;;;19.70;99.90;;;;;;6225143;28;20574;-65
2021/06/06 03:56:19;;;;;;;6.77;6.27;;;19.70;99.90;;;;;;6225149;28;20238;-64
2021/06/06 03:59:24;;;;;;;7.17;6.50;;;19.70;99.90;;;;;;6224681;28;20239;-63
2021/06/06 04:02:26;;;;;;;6.83;6.33;;;19.70;99.90;;;;;;6225572;28;20225;-64
2021/06/06 04:05:30;;;;;;;6.87;6.10;;;19.70;99.90;;;;;;6224302;28;20243;-64
2021/06/06 04:08:33;;;;;;;6.00;5.60;;;19.60;99.90;;;;;;6216168;28;20620;-61
2021/06/06 04:11:36;;;;;;;6.53;5.87;;;19.70;99.90;;;;;;6224466;28;20237;-60
2021/06/06 04:14:40;;;;;;;7.10;6.50;;;19.60;99.90;;;;;;6225200;28;20229;-61
2021/06/06 04:17:43;;;;;;;7.30;6.80;;;19.70;99.90;;;;;;6224351;28;20563;-59
2021/06/06 04:20:48;;;;;;;7.50;6.80;;;19.60;99.90;;;;;;6226052;28;20224;-60
2021/06/06 04:23:51;;;;;;;6.13;5.70;;;19.60;99.90;;;;;;6254096;28;20231;-60
2021/06/06 04:26:53;;;;;;;7.13;6.53;;;19.60;99.90;;;;;;6253795;28;20208;-61
2021/06/06 04:29:57;;;;;;;9.70;8.90;;;19.70;99.90;;;;;;6254098;28;20222;-61
2021/06/06 04:33:06;;;;;;;7.30;6.80;;;19.70;99.90;;;;;;6254034;28;20231;-60
2021/06/06 04:36:10;;;;;;;7.07;6.57;;;19.70;99.90;;;;;;6254096;28;20243;-60
2021/06/06 04:39:12;;;;;;;7.20;6.70;;;19.70;99.90;;;;;;6253922;28;20228;-60
2021/06/06 04:42:18;;;;;;;8.33;7.63;;;19.70;99.90;;;;;;6253851;28;20678;-59
2021/06/06 04:45:22;;;;;;;7.50;6.80;;;19.70;99.90;;;;;;6253744;28;20231;-59
2021/06/06 04:48:29;;;;;;;7.23;6.53;;;19.60;99.90;;;;;;6254005;28;20247;-60
2021/06/06 04:51:32;;;;;;;7.03;6.53;;;19.70;99.90;;;;;;6253616;28;20666;-59
2021/06/06 04:54:35;;;;;;;6.97;6.37;;;19.60;99.90;;;;;;6253582;28;20236;-60
2021/06/06 04:57:38;;;;;;;6.53;6.03;;;19.50;99.90;;;;;;6253118;28;20541;-60
2021/06/06 05:00:42;;;;;;;6.43;5.93;;;19.50;99.90;;;;;;6253368;28;20577;-60
2021/06/06 05:03:45;;;;;;;7.17;6.57;;;19.50;99.90;;;;;;6252946;28;20232;-60
2021/06/06 05:06:48;;;;;;;7.00;6.50;;;19.60;99.90;;;;;;6253176;28;20535;-62
2021/06/06 05:09:51;;;;;;;6.83;6.33;;;19.60;99.90;;;;;;6244063;28;20551;-60
2021/06/06 05:12:54;;;;;;;8.37;5.70;;;19.70;99.90;;;;;;6252651;28;20236;-60
2021/06/06 05:15:58;;;;;;;6.50;5.93;;;19.70;99.90;;;;;;6252854;28;20570;-60
2021/06/06 05:19:01;;;;;;;6.73;6.23;;;19.80;99.90;;;;;;6252781;28;20685;-60
2021/06/06 05:22:05;;;;;;;7.47;6.87;;;19.90;99.90;;;;;;6253171;28;20239;-60
2021/06/06 05:25:09;;;;;;;6.87;6.27;;;19.90;99.90;;;;;;6252694;28;20243;-60
2021/06/06 05:28:14;;;;;;;6.87;6.37;;;19.90;99.90;;;;;;6253237;28;20678;-60
2021/06/06 05:31:19;;;;;;;6.60;6.00;;;19.90;99.90;;;;;;6252565;28;20236;-60
2021/06/06 05:34:22;;;;;;;8.80;6.70;;;19.90;99.90;;;;;;6252019;28;20237;-60
2021/06/06 05:37:25;;;;;;;7.90;7.10;;;20.00;99.90;;;;;;6252357;28;20239;-60
2021/06/06 05:40:29;;;;;;;6.80;6.20;;;20.00;99.90;;;;;;6252648;28;20243;-64
2021/06/06 05:43:32;;;;;;;6.87;6.27;;;20.00;99.90;;;;;;6252807;28;20240;-64
2021/06/06 05:46:37;;;;;;;6.90;6.30;;;20.00;99.90;;;;;;6252469;28;20228;-65
2021/06/06 05:49:40;;;;;;;6.60;6.13;;;20.00;99.90;;;;;;6252240;28;20591;-65
2021/06/06 05:52:43;;;;;;;7.10;6.60;;;20.10;99.90;;;;;;6251860;28;20231;-65
2021/06/06 05:55:46;;;;;;;6.83;6.40;;;20.10;99.90;;;;;;6251953;28;20236;-65
2021/06/06 05:58:49;;;;;;;7.00;6.50;;;20.10;99.90;;;;;;6252057;28;20566;-65
2021/06/06 06:01:54;;;;;;;7.40;6.80;;;20.10;99.90;;;;;;6251762;28;20236;-65
2021/06/06 06:04:56;;;;;;;7.20;6.50;;;20.00;99.90;;;;;;6251783;28;20228;-65
2021/06/06 06:07:59;;;;;;;8.17;7.47;;;20.00;99.90;;;;;;6252062;28;20231;-65
2021/06/06 06:11:04;;;;;;;7.40;6.80;;;19.90;99.90;;;;;;6251896;28;20228;-65
2021/06/06 06:14:07;;;;;;;7.40;6.80;;;19.90;99.90;;;;;;6252141;28;20247;-65
2021/06/06 06:17:11;;;;;;;7.00;6.50;;;19.90;99.90;;;;;;6251302;28;20239;-64
2021/06/06 06:20:16;;;;;;;8.37;7.77;;;20.00;99.90;;;;;;6251414;28;20753;-63
2021/06/06 06:23:20;;;;;;;7.03;6.53;;;20.00;99.90;;;;;;6251278;28;20228;-62
2021/06/06 06:26:23;;;;;;;7.70;7.10;;;20.10;99.90;;;;;;6251732;28;20239;-62
2021/06/06 06:29:26;;;;;;;6.30;5.80;;;20.20;99.90;;;;;;6250935;28;20338;-62
2021/06/06 06:32:30;;;;;;;7.30;6.70;;;20.20;99.90;;;;;;6251142;28;20698;-62
2021/06/06 06:35:33;;;;;;;9.57;7.33;;;20.30;99.90;;;;;;6250888;28;20243;-62
2021/06/06 06:38:36;;;;;;;7.33;6.60;;;20.40;99.90;;;;;;6251043;28;20315;-62
2021/06/06 06:41:39;;;;;;;7.20;6.70;;;20.40;99.90;;;;;;6250827;28;20231;-62
2021/06/06 06:44:42;;;;;;;7.00;6.50;;;20.40;99.90;;;;;;6250643;28;20251;-62
2021/06/06 06:47:46;;;;;;;6.77;6.27;;;20.40;99.90;;;;;;6250756;28;20243;-63
2021/06/06 06:50:50;;;;;;;6.90;6.30;;;20.50;99.90;;;;;;6249686;28;20239;-61
2021/06/06 06:53:54;;;;;;;6.60;6.10;;;20.70;99.90;;;;;;6250903;28;20228;-65
2021/06/06 06:56:57;;;;;;;7.43;6.70;;;20.70;99.90;;;;;;6250486;28;20200;-63
2021/06/06 07:00:00;;;;;;;7.63;6.80;;;20.90;99.90;;;;;;6250452;28;20228;-64
2021/06/06 07:03:05;;;;;;;6.90;6.40;;;21.00;99.90;;;;;;6249896;28;20631;-63
2021/06/06 07:06:08;;;;;;;7.60;7.10;;;21.10;99.90;;;;;;6250206;28;20224;-63
2021/06/06 07:09:11;;;;;;;7.20;6.10;;;21.10;99.90;;;;;;6250465;28;20239;-63
2021/06/06 07:12:13;;;;;;;7.30;6.70;;;21.10;99.90;;;;;;6250398;28;20240;-64
2021/06/06 07:15:17;;;;;;;6.73;6.13;;;21.10;99.90;;;;;;6241060;28;20317;-63
2021/06/06 07:18:22;;;;;;;6.93;5.87;;;21.10;99.90;;;;;;6250020;28;20243;-59
2021/06/06 07:21:24;;;;;;;7.23;6.63;;;21.10;99.90;;;;;;6250076;28;20235;-60
2021/06/06 07:24:27;;;;;;;5.40;4.90;;;21.20;99.90;;;;;;6249946;28;20248;-62
2021/06/06 07:27:32;;;;;;;5.50;5.00;;;21.20;99.90;;;;;;6250003;28;20243;-62
2021/06/06 07:30:37;;;;;;;5.00;3.83;;;21.20;99.90;;;;;;6250262;28;20245;-63
2021/06/06 07:33:43;;;;;;;4.97;4.53;;;21.20;99.90;;;;;;6250699;28;20232;-60
2021/06/06 07:36:47;;;;;;;7.10;6.50;;;21.10;99.90;;;;;;6249926;28;20233;-62
2021/06/06 07:39:49;;;;;;;6.73;6.13;;;21.00;99.90;;;;;;6250084;28;20700;-58
2021/06/06 07:42:52;;;;;;;8.00;7.30;;;20.90;99.90;;;;;;6249765;28;20243;-63
2021/06/06 07:45:56;;;;;;;7.50;6.90;;;20.90;99.90;;;;;;6249774;28;20251;-63
2021/06/06 07:49:00;;;;;;;8.60;7.90;;;21.00;99.90;;;;;;6249124;28;20239;-62
2021/06/06 07:52:03;;;;;;;9.10;8.40;;;20.90;99.90;;;;;;6249612;28;20236;-62
2021/06/06 07:55:09;;;;;;;9.03;6.70;;;20.90;99.90;;;;;;6248973;28;20678;-63
2021/06/06 07:58:13;;;;;;;7.73;7.13;;;21.00;99.90;;;;;;6249628;28;20229;-62
2021/06/06 08:01:16;;;;;;;7.27;6.67;;;21.10;99.90;;;;;;6249144;28;20353;-62
2021/06/06 08:04:20;;;;;;;5.50;5.00;;;21.20;99.90;;;;;;6249124;28;20232;-63
2021/06/06 08:07:28;;;;;;;5.03;3.97;;;21.20;99.90;;;;;;6249166;28;20311;-63
2021/06/06 08:10:32;;;;;;;4.23;3.87;;;21.30;99.90;;;;;;6248682;28;20228;-59
2021/06/06 08:13:35;;;;;;;2.97;2.67;;;21.30;99.90;;;;;;6249099;28;20251;-64
2021/06/06 08:16:38;;;;;;;3.40;3.10;;;21.40;99.90;;;;;;6249093;28;20242;-64
2021/06/06 08:19:42;;;;;;;3.37;3.17;;;21.30;99.90;;;;;;6244880;28;20239;-64
2021/06/06 08:22:45;;;;;;;3.10;2.90;;;21.30;99.90;;;;;;6248751;28;20572;-63
2021/06/06 08:25:48;;;;;;;3.20;3.00;;;21.20;99.90;;;;;;6249302;28;20239;-63
2021/06/06 08:28:54;;;;;;;3.20;3.00;;;21.20;99.90;;;;;;6249051;28;20559;-63
2021/06/06 08:31:58;;;;;;;3.60;3.30;;;21.20;99.90;;;;;;6249397;28;20670;-62
2021/06/06 08:35:04;;;;;;;6.30;3.00;;;21.10;99.90;;;;;;6248659;28;20236;-62
2021/06/06 08:38:07;;;;;;;2.63;2.43;;;21.10;99.90;;;;;;6249060;28;20232;-62
2021/06/06 08:41:16;;;;;;;3.43;3.03;;;21.00;99.90;;;;;;6248571;28;20232;-63
2021/06/06 08:44:23;;;;;;;2.70;2.50;;;21.00;99.90;;;;;;6249055;28;20232;-63
2021/06/06 08:47:28;;;;;;;3.73;3.43;;;21.00;99.90;;;;;;6248589;28;20565;-63
2021/06/06 08:50:39;;;;;;;2.83;2.63;;;20.80;99.90;;;;;;6248924;28;20232;-62
2021/06/06 08:53:52;;;;;;;2.60;2.40;;;20.60;99.90;;;;;;6248620;28;20239;-63
2021/06/06 08:56:59;;;;;;;2.50;2.30;;;20.40;99.90;;;;;;6248730;28;20536;-64
2021/06/06 09:00:08;;;;;;;2.87;2.67;;;20.40;99.90;;;;;;6248542;28;20228;-65
2021/06/06 09:03:19;;;;;;;2.73;2.53;;;20.30;99.90;;;;;;6249092;28;20307;-64
2021/06/06 09:06:36;;;;;;;2.50;2.30;;;20.20;99.90;;;;;;6248307;28;20685;-65
2021/06/06 09:09:43;;;;;;;2.70;2.50;;;20.20;99.90;;;;;;6250870;28;20236;-63
2021/06/06 09:12:46;;;;;;;2.50;2.30;;;20.30;99.90;;;;;;6241074;28;20232;-63
2021/06/06 09:15:50;;;;;;;3.03;2.83;;;20.30;99.90;;;;;;6234515;28;20559;-63
2021/06/06 09:19:06;;;;;;;3.27;2.60;;;20.30;99.90;;;;;;6253039;28;20716;-62
2021/06/06 09:22:10;;;;;;;2.60;2.40;;;20.20;99.90;;;;;;6224935;28;20225;-61
2021/06/06 09:25:20;;;;;;;3.00;2.80;;;20.30;99.90;;;;;;6230622;28;20233;-62
2021/06/06 09:28:25;;;;;;;3.10;2.90;;;20.30;99.90;;;;;;6244431;28;20231;-62
2021/06/06 09:31:28;;;;;;;3.10;2.70;;;20.30;99.90;;;;;;6256878;28;20221;-65
2021/06/06 09:34:31;;;;;;;2.30;2.10;;;20.50;99.90;;;;;;6235947;28;20303;-63
2021/06/06 09:37:43;;;;;;;2.63;2.43;;;20.50;99.90;;;;;;6238299;28;20239;-62
2021/06/06 09:40:48;;;;;;;4.40;2.77;;;20.50;99.90;;;;;;6237805;28;20568;-62
2021/06/06 09:44:04;;;;;;;3.87;3.57;;;20.60;99.90;;;;;;6230115;28;20217;-62
2021/06/06 09:47:13;;;;;;;4.30;4.00;;;20.50;99.90;;;;;;6239406;28;20229;-59
2021/06/06 09:50:18;;;;;;;5.53;5.03;;;20.50;99.90;;;;;;6239198;28;20231;-67
2021/06/06 09:53:25;;;;;;;5.70;4.33;;;20.50;99.90;;;;;;6248711;28;20650;-64
2021/06/06 09:56:30;;;;;;;6.30;5.70;;;20.50;99.90;;;;;;6252102;28;20243;-62
2021/06/06 09:59:35;;;;;;;6.30;5.80;;;20.60;99.90;;;;;;6251205;28;20232;-61
2021/06/06 10:02:40;;;;;;;5.83;5.27;;;20.70;99.90;;;;;;6251025;28;20243;-61
2021/06/06 10:05:44;;;;;;;6.27;5.67;;;20.80;99.90;;;;;;6251683;28;20235;-63
2021/06/06 10:08:59;;;;;;;5.37;4.90;;;20.90;99.90;;;;;;6251685;28;20689;-64
2021/06/06 10:12:07;;;;;;;5.07;4.67;;;20.70;99.90;;;;;;6247671;28;20217;-63
2021/06/06 10:15:14;;;;;;;4.40;4.00;;;20.70;99.90;;;;;;6252058;28;20246;-65
2021/06/06 10:18:21;;;;;;;4.30;3.80;;;20.70;99.90;;;;;;6248278;28;20224;-64
2021/06/06 10:21:25;;;;;;;3.67;3.37;;;20.60;99.90;;;;;;6239353;28;20217;-64
2021/06/06 10:24:36;;;;;;;2.90;2.70;;;20.40;99.90;;;;;;6239386;28;20247;-64
2021/06/06 10:27:42;;;;;;;3.53;3.23;;;20.40;99.90;;;;;;6226801;28;20235;-64
2021/06/06 10:30:49;;;;;;;2.47;2.27;;;20.50;99.90;;;;;;6238673;28;20229;-64
2021/06/06 10:33:56;;;;;;;2.77;2.57;;;20.50;99.90;;;;;;6244295;28;20239;-64
2021/06/06 10:36:59;;;;;;;6.70;3.60;;;20.20;99.90;;;;;;6250484;28;20219;-62
2021/06/06 10:40:08;;;;;;;3.27;3.07;;;20.20;99.90;;;;;;6250471;28;20574;-70
2021/06/06 10:43:25;;;;;;;3.60;3.30;;;20.40;99.90;;;;;;6251203;28;20290;-60
2021/06/06 10:46:34;;;;;;;3.73;2.70;;;20.30;99.90;;;;;;6247723;28;20248;-61
2021/06/06 10:49:47;;;;;;;3.00;2.80;;;20.30;99.90;;;;;;6225892;28;20225;-59
2021/06/06 10:52:51;;;;;;;2.90;2.70;;;20.30;99.90;;;;;;6226071;28;20228;-64
2021/06/06 10:56:04;;;;;;;2.90;2.70;;;20.40;99.90;;;;;;6231563;28;20659;-60
2021/06/06 10:59:09;;;;;;;2.87;2.67;;;20.50;99.90;;;;;;6226075;28;20232;-59
2021/06/06 11:02:29;;;;;;;3.17;2.97;;;20.50;99.90;;;;;;6228305;28;20670;-63
2021/06/06 11:05:45;;;;;;;3.07;2.87;;;20.50;99.90;;;;;;6249959;28;20243;-59
2021/06/06 11:08:49;;;;;;;3.13;2.93;;;20.50;99.90;;;;;;6249750;28;20239;-58
2021/06/06 11:11:59;;;;;;;3.80;3.40;;;20.50;99.90;;;;;;6246092;28;20235;-59
2021/06/06 11:15:18;;;;;;;3.23;3.03;;;20.50;99.90;;;;;;6228572;28;20221;-59
2021/06/06 11:18:24;;;;;;;4.37;2.70;;;20.60;99.90;;;;;;6270184;28;20575;-60
2021/06/06 11:21:34;;;;;;;2.93;2.63;;;20.60;99.90;;;;;;6249787;28;20224;-59
2021/06/06 11:24:47;;;;;;;4.87;2.63;;;20.50;99.90;;;;;;6247369;28;20232;-59
2021/06/06 11:27:56;;;;;;;2.70;2.50;;;20.50;99.90;;;;;;6249182;28;20567;-60
2021/06/06 11:31:01;;;;;;;4.30;2.77;;;20.50;99.90;;;;;;6239139;28;20232;-61
2021/06/06 11:34:21;;;;;;;2.20;2.00;;;20.50;99.90;;;;;;6249456;28;20232;-60
2021/06/06 11:37:37;;;;;;;3.20;2.90;;;20.40;99.90;;;;;;6248745;28;20572;-60
2021/06/06 11:40:42;;;;;;;3.60;3.33;;;20.40;99.90;;;;;;6249302;28;20233;-59
2021/06/06 11:43:50;;;;;;;2.93;2.63;;;20.30;99.90;;;;;;6248875;28;20235;-58
2021/06/06 11:46:56;;;;;;;3.50;2.90;;;20.40;99.90;;;;;;6249729;28;20524;-59
2021/06/06 11:50:05;;;;;;;3.40;2.90;;;20.50;99.90;;;;;;6248642;28;20853;-58
2021/06/06 11:53:13;;;;;;;3.20;3.00;;;20.60;99.90;;;;;;6239689;28;20228;-59
2021/06/06 11:56:18;;;;;;;3.23;2.93;;;20.80;99.90;;;;;;6224462;28;20233;-59
2021/06/06 11:59:28;;;;;;;3.97;3.67;;;20.90;99.90;;;;;;6228445;28;20721;-60
2021/06/06 12:02:32;;;;;;;2.73;2.53;;;21.00;99.90;;;;;;6231614;28;20227;-59
2021/06/06 12:05:37;;;;;;;3.07;2.87;;;21.10;99.90;;;;;;6227040;28;20233;-59
2021/06/06 12:08:42;;;;;;;2.00;1.90;;;21.10;99.90;;;;;;6224016;28;20248;-59
2021/06/06 12:11:46;;;;;;;2.70;2.50;;;21.20;99.90;;;;;;6224257;28;20611;-60
2021/06/06 12:15:04;;;;;;;2.80;2.40;;;21.40;99.90;;;;;;6242956;28;20406;-60
2021/06/06 12:18:10;;;;;;;2.57;2.37;;;21.60;99.90;;;;;;6248148;28;20212;-60
2021/06/06 12:21:16;;;;;;;2.77;2.20;;;21.90;99.90;;;;;;6248668;28;20224;-61
2021/06/06 12:24:22;;;;;;;3.33;3.13;;;22.00;99.90;;;;;;6248362;28;20558;-59
2021/06/06 12:27:27;;;;;;;2.20;2.10;;;22.10;99.90;;;;;;6244532;28;20569;-61
2021/06/06 12:30:35;;;;;;;2.77;2.57;;;22.40;99.90;;;;;;6245764;28;20982;-59
2021/06/06 12:33:41;;;;;;;4.17;2.87;;;22.70;99.90;;;;;;6213721;28;20233;-59
2021/06/06 12:36:44;;;;;;;3.43;2.60;;;23.10;99.90;;;;;;6223832;28;20229;-58
2021/06/06 12:39:51;;;;;;;12.20;8.40;;;23.30;99.90;;;;;;6224062;28;20532;-59
2021/06/06 12:42:57;;;;;;;9.80;6.93;;;23.30;99.90;;;;;;6226978;28;20236;-60
2021/06/06 12:46:06;;;;;;;3.93;3.63;;;23.30;99.90;;;;;;6228791;28;20263;-59
2021/06/06 12:49:10;;;;;;;2.80;2.60;;;23.20;99.90;;;;;;6249215;28;20239;-60
2021/06/06 12:52:21;;;;;;;3.13;2.90;;;23.30;99.90;;;;;;6253321;28;20670;-60
2021/06/06 12:55:27;;;;;;;9.50;8.67;;;23.30;99.90;;;;;;6252790;28;20237;-60
2021/06/06 12:58:32;;;;;;;3.10;2.90;;;23.40;99.90;;;;;;6253070;28;20559;-61
2021/06/06 13:01:37;;;;;;;7.47;6.70;;;23.40;99.90;;;;;;6232129;28;20237;-61
2021/06/06 13:04:41;;;;;;;4.90;3.50;;;23.40;99.90;;;;;;6251720;28;20258;-60
2021/06/06 13:07:55;;;;;;;3.70;3.10;;;23.40;99.90;;;;;;6252789;28;20324;-59
2021/06/06 13:11:00;;;;;;;3.57;2.90;;;23.40;99.90;;;;;;6252396;28;20243;-60
2021/06/06 13:14:16;;;;;;;2.00;1.90;;;23.50;99.90;;;;;;6242893;28;20225;-60
2021/06/06 13:17:29;;;;;;;2.50;1.80;;;23.40;99.90;;;;;;6228346;28;20229;-60
2021/06/06 13:20:34;;;;;;;2.90;2.00;;;23.40;99.90;;;;;;6239610;28;20303;-60
2021/06/06 13:23:39;;;;;;;1.20;1.00;;;23.50;99.90;;;;;;6252530;28;20224;-59
2021/06/06 13:26:44;;;;;;;1.20;0.87;;;23.80;99.90;;;;;;6251917;28;20236;-61
2021/06/06 13:29:48;;;;;;;1.73;1.07;;;23.80;99.10;;;;;;6252472;28;20580;-61
2021/06/06 13:32:56;;;;;;;1.13;1.00;;;23.90;99.00;;;;;;6248644;28;20563;-61
2021/06/06 13:35:59;;;;;;;1.20;0.80;;;24.00;99.00;;;;;;6243058;28;20224;-60
2021/06/06 13:39:12;;;;;;;2.20;1.30;;;24.10;99.10;;;;;;6236925;28;20632;-60
2021/06/06 13:42:18;;;;;;;1.10;0.90;;;24.10;98.60;;;;;;6245918;28;20315;-60
2021/06/06 13:45:21;;;;;;;1.77;0.87;;;24.10;98.60;;;;;;6240641;28;20239;-61
2021/06/06 13:48:28;;;;;;;1.00;0.90;;;24.00;98.60;;;;;;6241738;28;20231;-60
2021/06/06 13:51:31;;;;;;;1.57;0.80;;;23.80;98.60;;;;;;6239802;28;20705;-60
2021/06/06 13:54:34;;;;;;;1.83;1.40;;;23.70;98.80;;;;;;6226726;28;20697;-59
2021/06/06 13:57:37;;;;;;;2.50;1.83;;;23.50;99.50;;;;;;6229343;28;20232;-58
2021/06/06 14:00:40;;;;;;;1.33;1.23;;;23.50;99.60;;;;;;6226706;28;20247;-59
2021/06/06 14:03:45;;;;;;;1.80;1.70;;;23.40;99.30;;;;;;6227098;28;20691;-59
2021/06/06 14:06:48;;;;;;;2.67;2.30;;;23.40;99.70;;;;;;6226281;28;20244;-59
2021/06/06 14:09:51;;;;;;;2.50;2.30;;;23.40;99.90;;;;;;6229678;28;20217;-58
2021/06/06 14:12:54;;;;;;;3.70;3.40;;;23.30;99.90;;;;;;6237813;28;20669;-59
2021/06/06 14:15:58;;;;;;;3.70;3.40;;;23.20;99.90;;;;;;6239554;28;20698;-59
2021/06/06 14:19:02;;;;;;;3.27;3.07;;;22.80;99.90;;;;;;6237077;28;20622;-58
2021/06/06 14:22:06;;;;;;;4.80;4.40;;;22.60;99.90;;;;;;6237438;28;20228;-59
2021/06/06 14:25:17;;;;;;;4.50;4.10;;;22.60;99.90;;;;;;6236857;28;20221;-59
2021/06/06 14:28:22;;;;;;;4.17;3.77;;;22.60;99.90;;;;;;6237088;28;20229;-59
2021/06/06 14:31:26;;;;;;;4.40;4.10;;;22.80;99.90;;;;;;6245346;28;20239;-63
2021/06/06 14:34:31;;;;;;;4.90;4.40;;;22.80;99.90;;;;;;6248381;28;20370;-59
2021/06/06 14:37:37;;;;;;;4.77;4.47;;;22.60;99.90;;;;;;6247045;28;20228;-59
2021/06/06 14:40:44;;;;;;;6.43;4.43;;;22.60;99.90;;;;;;6247557;28;20566;-60
2021/06/06 14:43:47;;;;;;;4.17;3.87;;;22.60;99.90;;;;;;6237275;28;20228;-58
2021/06/06 14:46:50;;;;;;;5.40;4.90;;;22.50;99.90;;;;;;6246533;28;20232;-59
2021/06/06 14:49:54;;;;;;;7.20;4.83;;;22.60;99.90;;;;;;6249349;28;20232;-58
2021/06/06 14:52:58;;;;;;;4.63;4.33;;;22.20;99.90;;;;;;6250051;28;20228;-59
2021/06/06 14:56:02;;;;;;;5.20;4.80;;;22.10;99.90;;;;;;6250601;28;20236;-58
2021/06/06 14:59:05;;;;;;;4.67;4.00;;;22.30;99.90;;;;;;6250276;28;20250;-59
2021/06/06 15:02:10;;;;;;;4.17;3.87;;;22.40;99.90;;;;;;6250295;28;20243;-59
2021/06/06 15:05:15;;;;;;;5.40;4.50;;;22.40;99.90;;;;;;6249075;28;20258;-59
2021/06/06 15:08:20;;;;;;;4.67;4.00;;;22.50;99.90;;;;;;6250359;28;20243;-59
2021/06/06 15:11:23;;;;;;;4.70;4.30;;;22.60;99.90;;;;;;6249719;28;20224;-60
2021/06/06 15:14:26;;;;;;;3.10;2.90;;;22.70;99.90;;;;;;6234756;28;20232;-58
2021/06/06 15:17:31;;;;;;;11.00;9.43;;;22.50;99.90;;;;;;6268168;28;20273;-58
2021/06/06 15:20:35;;;;;;;3.87;3.57;;;22.40;99.90;;;;;;6274769;28;20227;-59
2021/06/06 15:23:39;;;;;;;4.00;3.70;;;22.50;99.90;;;;;;6251207;28;20239;-58
2021/06/06 15:26:45;;;;;;;4.27;3.97;;;22.40;99.90;;;;;;6250152;28;20235;-59
2021/06/06 15:29:48;;;;;;;3.30;2.60;;;22.50;99.90;;;;;;6249563;28;20232;-58
2021/06/06 15:32:50;;;;;;;3.10;2.30;;;22.60;99.90;;;;;;6249734;28;20581;-59
2021/06/06 15:35:56;;;;;;;2.83;2.63;;;22.70;99.90;;;;;;6249827;28;20654;-59
2021/06/06 15:39:00;;;;;;;2.57;2.17;;;22.80;99.90;;;;;;6274057;28;20197;-59
2021/06/06 15:42:04;;;;;;;2.20;2.10;;;22.90;99.90;;;;;;6274514;28;20210;-59
2021/06/06 15:45:13;;;;;;;2.53;2.33;;;22.90;99.90;;;;;;6269087;28;20677;-59
2021/06/06 15:48:18;;;;;;;3.47;2.63;;;22.90;99.90;;;;;;6274236;28;20238;-58
2021/06/06 15:51:31;;;;;;;2.40;2.20;;;22.80;99.90;;;;;;6273973;28;20231;-59
2021/06/06 15:54:35;;;;;;;2.47;2.27;;;22.90;99.90;;;;;;6274316;28;20232;-58
2021/06/06 15:57:38;;;;;;;2.03;1.93;;;23.00;99.90;;;;;;6273904;28;20231;-59
2021/06/06 16:00:42;;;;;;;2.23;2.00;;;22.90;99.90;;;;;;6273481;28;20227;-59
2021/06/06 16:03:45;;;;;;;2.40;2.10;;;22.90;99.90;;;;;;6273828;28;20231;-58